sensor_id;sensor_type;location;lat;lon;timestamp;P1;durP1;ratioP1;P2;durP2;ratioP2
15476;SDS011;7840;42.702;23.296;2023-01-19T00:01:07;26.92;;;5.38;;
15476;SDS011;7840;42.702;23.296;2023-01-19T00:03:35;22.02;;;4.45;;
15476;SDS011;7840;42.702;23.296;2023-01-19T00:06:03;23.27;;;4.93;;
15476;SDS011;7840;42.702;23.296;2023-01-19T00:08:34;27.42;;;5.07;;
15476;SDS011;7840;42.702;23.296;2023-01-19T00:11:15;22.55;;;5.03;;
15476;SDS011;7840;42.702;23.296;2023-01-19T00:13:43;20.98;;;5.03;;
15476;SDS011;7840;42.702;23.296;2023-01-19T00:16:18;23.38;;;4.35;;
15476;SDS011;7840;42.702;23.296;2023-01-19T00:18:56;27.83;;;4.80;;
15476;SDS011;7840;42.702;23.296;2023-01-19T00:21:24;31.70;;;5.40;;
15476;SDS011;7840;42.702;23.296;2023-01-19T00:23:51;30.75;;;5.22;;
15476;SDS011;7840;42.702;23.296;2023-01-19T00:26:21;33.75;;;5.57;;
15476;SDS011;7840;42.702;23.296;2023-01-19T00:28:49;25.75;;;4.38;;
15476;SDS011;7840;42.702;23.296;2023-01-19T00:31:17;23.98;;;5.20;;
15476;SDS011;7840;42.702;23.296;2023-01-19T00:33:45;29.50;;;5.22;;
15476;SDS011;7840;42.702;23.296;2023-01-19T00:36:15;26.15;;;5.28;;
15476;SDS011;7840;42.702;23.296;2023-01-19T00:44:41;33.17;;;5.13;;
15476;SDS011;7840;42.702;23.296;2023-01-19T00:47:11;29.33;;;5.20;;
15476;SDS011;7840;42.702;23.296;2023-01-19T00:49:39;23.35;;;4.85;;
15476;SDS011;7840;42.702;23.296;2023-01-19T00:52:06;24.00;;;5.38;;
15476;SDS011;7840;42.702;23.296;2023-01-19T00:54:37;24.48;;;4.80;;
15476;SDS011;7840;42.702;23.296;2023-01-19T00:57:06;25.65;;;5.43;;
15476;SDS011;7840;42.702;23.296;2023-01-19T00:59:38;25.13;;;5.22;;
15476;SDS011;7840;42.702;23.296;2023-01-19T01:02:12;26.23;;;5.25;;
15476;SDS011;7840;42.702;23.296;2023-01-19T01:04:43;21.38;;;4.53;;
15476;SDS011;7840;42.702;23.296;2023-01-19T01:07:11;29.02;;;5.45;;
15476;SDS011;7840;42.702;23.296;2023-01-19T01:09:39;26.90;;;4.80;;
15476;SDS011;7840;42.702;23.296;2023-01-19T01:12:08;29.90;;;4.68;;
15476;SDS011;7840;42.702;23.296;2023-01-19T01:14:36;28.27;;;5.03;;
15476;SDS011;7840;42.702;23.296;2023-01-19T01:17:03;21.67;;;4.75;;
15476;SDS011;7840;42.702;23.296;2023-01-19T01:19:35;30.90;;;6.05;;
15476;SDS011;7840;42.702;23.296;2023-01-19T01:22:03;26.83;;;5.45;;
15476;SDS011;7840;42.702;23.296;2023-01-19T01:24:32;29.48;;;4.97;;
15476;SDS011;7840;42.702;23.296;2023-01-19T01:27:03;24.38;;;4.75;;
15476;SDS011;7840;42.702;23.296;2023-01-19T01:29:33;37.95;;;5.47;;
15476;SDS011;7840;42.702;23.296;2023-01-19T01:32:01;23.08;;;4.32;;
15476;SDS011;7840;42.702;23.296;2023-01-19T01:34:30;24.85;;;4.43;;
15476;SDS011;7840;42.702;23.296;2023-01-19T01:36:58;26.70;;;4.25;;
15476;SDS011;7840;42.702;23.296;2023-01-19T01:39:27;20.73;;;4.57;;
15476;SDS011;7840;42.702;23.296;2023-01-19T02:42:05;15.38;;;3.45;;
15476;SDS011;7840;42.702;23.296;2023-01-19T02:44:38;15.52;;;3.70;;
15476;SDS011;7840;42.702;23.296;2023-01-19T02:47:21;17.90;;;3.63;;
15476;SDS011;7840;42.702;23.296;2023-01-19T02:50:01;22.13;;;4.30;;
15476;SDS011;7840;42.702;23.296;2023-01-19T02:52:29;17.85;;;4.15;;
15476;SDS011;7840;42.702;23.296;2023-01-19T02:54:59;19.48;;;3.95;;
15476;SDS011;7840;42.702;23.296;2023-01-19T02:57:36;19.52;;;4.45;;
15476;SDS011;7840;42.702;23.296;2023-01-19T03:00:16;21.60;;;3.78;;
15476;SDS011;7840;42.702;23.296;2023-01-19T03:02:55;14.93;;;3.25;;
15476;SDS011;7840;42.702;23.296;2023-01-19T03:05:39;26.42;;;4.53;;
15476;SDS011;7840;42.702;23.296;2023-01-19T03:08:25;17.25;;;4.18;;
15476;SDS011;7840;42.702;23.296;2023-01-19T03:11:07;20.83;;;3.92;;
15476;SDS011;7840;42.702;23.296;2023-01-19T03:13:46;23.30;;;4.32;;
15476;SDS011;7840;42.702;23.296;2023-01-19T03:16:19;17.15;;;4.20;;
15476;SDS011;7840;42.702;23.296;2023-01-19T03:18:50;17.25;;;4.22;;
15476;SDS011;7840;42.702;23.296;2023-01-19T03:21:21;20.60;;;4.28;;
15476;SDS011;7840;42.702;23.296;2023-01-19T03:23:52;27.70;;;4.38;;
15476;SDS011;7840;42.702;23.296;2023-01-19T03:26:24;19.60;;;4.13;;
15476;SDS011;7840;42.702;23.296;2023-01-19T03:29:06;17.58;;;4.03;;
15476;SDS011;7840;42.702;23.296;2023-01-19T03:31:45;24.17;;;4.10;;
15476;SDS011;7840;42.702;23.296;2023-01-19T03:34:18;25.33;;;4.07;;
15476;SDS011;7840;42.702;23.296;2023-01-19T03:37:09;27.42;;;3.80;;
15476;SDS011;7840;42.702;23.296;2023-01-19T03:39:42;25.50;;;4.50;;
15476;SDS011;7840;42.702;23.296;2023-01-19T03:42:10;24.45;;;4.38;;
15476;SDS011;7840;42.702;23.296;2023-01-19T03:44:54;12.95;;;3.47;;
15476;SDS011;7840;42.702;23.296;2023-01-19T03:47:25;25.50;;;4.38;;
15476;SDS011;7840;42.702;23.296;2023-01-19T03:49:54;21.48;;;3.67;;
15476;SDS011;7840;42.702;23.296;2023-01-19T03:52:27;15.27;;;3.65;;
15476;SDS011;7840;42.702;23.296;2023-01-19T03:54:57;21.23;;;4.32;;
15476;SDS011;7840;42.702;23.296;2023-01-19T03:57:25;22.75;;;4.63;;
15476;SDS011;7840;42.702;23.296;2023-01-19T03:59:54;12.75;;;3.47;;
15476;SDS011;7840;42.702;23.296;2023-01-19T04:02:21;20.02;;;4.35;;
15476;SDS011;7840;42.702;23.296;2023-01-19T04:05:21;23.88;;;4.18;;
15476;SDS011;7840;42.702;23.296;2023-01-19T04:07:49;20.38;;;4.93;;
15476;SDS011;7840;42.702;23.296;2023-01-19T04:21:17;25.52;;;5.22;;
15476;SDS011;7840;42.702;23.296;2023-01-19T04:23:45;25.63;;;6.00;;
15476;SDS011;7840;42.702;23.296;2023-01-19T04:26:14;22.50;;;5.10;;
15476;SDS011;7840;42.702;23.296;2023-01-19T04:28:42;36.47;;;6.70;;
15476;SDS011;7840;42.702;23.296;2023-01-19T04:31:12;37.75;;;6.35;;
15476;SDS011;7840;42.702;23.296;2023-01-19T04:33:40;35.72;;;5.22;;
15476;SDS011;7840;42.702;23.296;2023-01-19T04:36:07;36.45;;;6.32;;
15476;SDS011;7840;42.702;23.296;2023-01-19T04:38:36;29.40;;;6.88;;
15476;SDS011;7840;42.702;23.296;2023-01-19T04:41:04;32.90;;;6.53;;
15476;SDS011;7840;42.702;23.296;2023-01-19T04:43:35;34.63;;;6.38;;
15476;SDS011;7840;42.702;23.296;2023-01-19T04:46:09;43.05;;;6.72;;
15476;SDS011;7840;42.702;23.296;2023-01-19T04:48:37;29.10;;;5.80;;
15476;SDS011;7840;42.702;23.296;2023-01-19T04:51:05;34.90;;;6.65;;
15476;SDS011;7840;42.702;23.296;2023-01-19T04:53:33;39.30;;;5.78;;
15476;SDS011;7840;42.702;23.296;2023-01-19T04:56:09;29.63;;;6.43;;
15476;SDS011;7840;42.702;23.296;2023-01-19T04:58:39;26.58;;;6.05;;
15476;SDS011;7840;42.702;23.296;2023-01-19T05:01:07;43.75;;;6.90;;
15476;SDS011;7840;42.702;23.296;2023-01-19T05:03:35;29.75;;;6.63;;
15476;SDS011;7840;42.702;23.296;2023-01-19T05:06:04;33.42;;;6.22;;
15476;SDS011;7840;42.702;23.296;2023-01-19T05:08:32;39.53;;;7.00;;
15476;SDS011;7840;42.702;23.296;2023-01-19T05:11:04;33.28;;;6.20;;
15476;SDS011;7840;42.702;23.296;2023-01-19T05:16:22;36.38;;;6.55;;
15476;SDS011;7840;42.702;23.296;2023-01-19T05:18:55;29.80;;;5.95;;
15476;SDS011;7840;42.702;23.296;2023-01-19T05:21:35;36.65;;;6.13;;
15476;SDS011;7840;42.702;23.296;2023-01-19T05:24:03;26.52;;;6.00;;
15476;SDS011;7840;42.702;23.296;2023-01-19T05:26:31;26.85;;;6.00;;
15476;SDS011;7840;42.702;23.296;2023-01-19T05:29:02;37.72;;;6.18;;
15476;SDS011;7840;42.702;23.296;2023-01-19T05:31:30;35.55;;;6.30;;
15476;SDS011;7840;42.702;23.296;2023-01-19T05:33:57;38.40;;;6.35;;
15476;SDS011;7840;42.702;23.296;2023-01-19T05:36:25;32.63;;;6.43;;
15476;SDS011;7840;42.702;23.296;2023-01-19T05:38:53;35.88;;;6.65;;
15476;SDS011;7840;42.702;23.296;2023-01-19T05:41:35;18.50;;;5.18;;
15476;SDS011;7840;42.702;23.296;2023-01-19T05:44:04;34.17;;;6.28;;
15476;SDS011;7840;42.702;23.296;2023-01-19T05:46:32;43.70;;;7.25;;
15476;SDS011;7840;42.702;23.296;2023-01-19T05:49:00;25.55;;;5.30;;
15476;SDS011;7840;42.702;23.296;2023-01-19T05:51:29;32.40;;;6.47;;
15476;SDS011;7840;42.702;23.296;2023-01-19T05:54:12;36.10;;;6.32;;
15476;SDS011;7840;42.702;23.296;2023-01-19T05:56:40;43.28;;;7.53;;
15476;SDS011;7840;42.702;23.296;2023-01-19T05:59:13;34.00;;;6.05;;
15476;SDS011;7840;42.702;23.296;2023-01-19T06:01:45;33.03;;;6.03;;
15476;SDS011;7840;42.702;23.296;2023-01-19T06:04:14;46.35;;;7.50;;
15476;SDS011;7840;42.702;23.296;2023-01-19T06:06:47;33.38;;;5.93;;
15476;SDS011;7840;42.702;23.296;2023-01-19T06:09:16;31.02;;;5.95;;
15476;SDS011;7840;42.702;23.296;2023-01-19T06:11:44;35.95;;;6.95;;
15476;SDS011;7840;42.702;23.296;2023-01-19T06:14:14;38.63;;;7.05;;
15476;SDS011;7840;42.702;23.296;2023-01-19T06:16:41;33.47;;;6.00;;
15476;SDS011;7840;42.702;23.296;2023-01-19T06:19:09;34.17;;;6.47;;
15476;SDS011;7840;42.702;23.296;2023-01-19T06:21:37;30.23;;;5.68;;
15476;SDS011;7840;42.702;23.296;2023-01-19T06:24:05;25.58;;;6.18;;
15476;SDS011;7840;42.702;23.296;2023-01-19T06:26:33;36.95;;;7.28;;
15476;SDS011;7840;42.702;23.296;2023-01-19T06:29:03;28.02;;;6.07;;
15476;SDS011;7840;42.702;23.296;2023-01-19T06:31:32;40.33;;;6.47;;
15476;SDS011;7840;42.702;23.296;2023-01-19T06:34:00;29.10;;;6.47;;
15476;SDS011;7840;42.702;23.296;2023-01-19T06:36:29;33.15;;;6.32;;
15476;SDS011;7840;42.702;23.296;2023-01-19T06:38:56;35.17;;;6.78;;
15476;SDS011;7840;42.702;23.296;2023-01-19T06:41:24;36.22;;;6.65;;
15476;SDS011;7840;42.702;23.296;2023-01-19T06:43:52;32.10;;;6.30;;
15476;SDS011;7840;42.702;23.296;2023-01-19T06:46:22;34.97;;;7.40;;
15476;SDS011;7840;42.702;23.296;2023-01-19T06:48:51;50.30;;;7.20;;
15476;SDS011;7840;42.702;23.296;2023-01-19T06:51:19;31.92;;;6.88;;
15476;SDS011;7840;42.702;23.296;2023-01-19T06:53:47;32.55;;;6.40;;
15476;SDS011;7840;42.702;23.296;2023-01-19T06:56:18;33.85;;;7.53;;
15476;SDS011;7840;42.702;23.296;2023-01-19T06:58:46;36.10;;;7.65;;
15476;SDS011;7840;42.702;23.296;2023-01-19T07:01:14;32.28;;;7.38;;
15476;SDS011;7840;42.702;23.296;2023-01-19T07:03:45;36.97;;;7.65;;
15476;SDS011;7840;42.702;23.296;2023-01-19T07:06:14;33.50;;;6.88;;
15476;SDS011;7840;42.702;23.296;2023-01-19T07:08:50;34.60;;;6.53;;
15476;SDS011;7840;42.702;23.296;2023-01-19T07:11:17;30.95;;;7.53;;
15476;SDS011;7840;42.702;23.296;2023-01-19T07:13:45;30.75;;;6.82;;
15476;SDS011;7840;42.702;23.296;2023-01-19T07:16:16;38.90;;;7.45;;
15476;SDS011;7840;42.702;23.296;2023-01-19T07:18:44;41.15;;;7.65;;
15476;SDS011;7840;42.702;23.296;2023-01-19T07:21:28;25.52;;;7.22;;
15476;SDS011;7840;42.702;23.296;2023-01-19T07:23:55;45.30;;;6.75;;
15476;SDS011;7840;42.702;23.296;2023-01-19T07:26:23;40.10;;;7.63;;
15476;SDS011;7840;42.702;23.296;2023-01-19T07:28:52;34.85;;;6.28;;
15476;SDS011;7840;42.702;23.296;2023-01-19T07:31:20;36.10;;;6.43;;
15476;SDS011;7840;42.702;23.296;2023-01-19T07:34:08;32.60;;;6.32;;
15476;SDS011;7840;42.702;23.296;2023-01-19T07:36:45;35.22;;;7.38;;
15476;SDS011;7840;42.702;23.296;2023-01-19T07:39:16;40.17;;;7.95;;
15476;SDS011;7840;42.702;23.296;2023-01-19T07:41:44;36.45;;;8.30;;
15476;SDS011;7840;42.702;23.296;2023-01-19T07:44:18;39.78;;;7.97;;
15476;SDS011;7840;42.702;23.296;2023-01-19T07:46:49;37.83;;;8.00;;
15476;SDS011;7840;42.702;23.296;2023-01-19T07:49:23;35.80;;;6.70;;
15476;SDS011;7840;42.702;23.296;2023-01-19T07:51:53;34.22;;;7.07;;
15476;SDS011;7840;42.702;23.296;2023-01-19T07:54:33;35.35;;;6.78;;
15476;SDS011;7840;42.702;23.296;2023-01-19T07:57:10;28.42;;;5.80;;
15476;SDS011;7840;42.702;23.296;2023-01-19T07:59:41;32.13;;;7.43;;
15476;SDS011;7840;42.702;23.296;2023-01-19T08:02:12;30.65;;;6.70;;
15476;SDS011;7840;42.702;23.296;2023-01-19T08:04:39;31.52;;;6.95;;
15476;SDS011;7840;42.702;23.296;2023-01-19T08:07:22;38.95;;;6.43;;
15476;SDS011;7840;42.702;23.296;2023-01-19T08:09:50;36.03;;;7.43;;
15476;SDS011;7840;42.702;23.296;2023-01-19T08:12:18;34.20;;;7.63;;
15476;SDS011;7840;42.702;23.296;2023-01-19T08:14:54;37.67;;;6.63;;
15476;SDS011;7840;42.702;23.296;2023-01-19T08:17:56;32.85;;;6.22;;
15476;SDS011;7840;42.702;23.296;2023-01-19T08:20:29;30.85;;;7.30;;
15476;SDS011;7840;42.702;23.296;2023-01-19T08:22:59;34.95;;;6.75;;
15476;SDS011;7840;42.702;23.296;2023-01-19T08:25:30;38.72;;;7.90;;
15476;SDS011;7840;42.702;23.296;2023-01-19T08:28:02;40.53;;;7.53;;
15476;SDS011;7840;42.702;23.296;2023-01-19T08:30:31;29.92;;;6.72;;
15476;SDS011;7840;42.702;23.296;2023-01-19T08:32:59;30.13;;;6.47;;
15476;SDS011;7840;42.702;23.296;2023-01-19T08:35:29;22.73;;;6.20;;
15476;SDS011;7840;42.702;23.296;2023-01-19T08:37:56;40.00;;;7.40;;
15476;SDS011;7840;42.702;23.296;2023-01-19T08:40:26;34.15;;;6.13;;
15476;SDS011;7840;42.702;23.296;2023-01-19T08:42:57;35.95;;;7.50;;
15476;SDS011;7840;42.702;23.296;2023-01-19T08:45:28;43.47;;;7.85;;
15476;SDS011;7840;42.702;23.296;2023-01-19T08:48:13;34.60;;;7.35;;
15476;SDS011;7840;42.702;23.296;2023-01-19T08:51:04;27.25;;;6.03;;
15476;SDS011;7840;42.702;23.296;2023-01-19T08:53:33;34.25;;;7.10;;
15476;SDS011;7840;42.702;23.296;2023-01-19T08:56:01;35.22;;;6.60;;
15476;SDS011;7840;42.702;23.296;2023-01-19T08:58:30;29.85;;;6.78;;
15476;SDS011;7840;42.702;23.296;2023-01-19T09:00:58;35.35;;;6.75;;
15476;SDS011;7840;42.702;23.296;2023-01-19T09:06:10;33.17;;;6.93;;
15476;SDS011;7840;42.702;23.296;2023-01-19T09:08:42;31.58;;;6.50;;
15476;SDS011;7840;42.702;23.296;2023-01-19T09:11:15;37.92;;;5.85;;
15476;SDS011;7840;42.702;23.296;2023-01-19T09:13:45;32.60;;;6.22;;
15476;SDS011;7840;42.702;23.296;2023-01-19T09:16:29;33.00;;;6.22;;
15476;SDS011;7840;42.702;23.296;2023-01-19T09:19:01;27.70;;;5.95;;
15476;SDS011;7840;42.702;23.296;2023-01-19T09:21:39;26.38;;;6.03;;
15476;SDS011;7840;42.702;23.296;2023-01-19T09:24:08;27.08;;;5.38;;
15476;SDS011;7840;42.702;23.296;2023-01-19T09:26:36;21.58;;;4.63;;
15476;SDS011;7840;42.702;23.296;2023-01-19T09:29:04;18.85;;;4.68;;
15476;SDS011;7840;42.702;23.296;2023-01-19T09:31:35;28.27;;;5.50;;
15476;SDS011;7840;42.702;23.296;2023-01-19T09:34:04;25.92;;;5.55;;
15476;SDS011;7840;42.702;23.296;2023-01-19T09:36:32;18.65;;;4.90;;
15476;SDS011;7840;42.702;23.296;2023-01-19T09:39:00;25.25;;;5.30;;
15476;SDS011;7840;42.702;23.296;2023-01-19T09:41:32;26.80;;;5.35;;
15476;SDS011;7840;42.702;23.296;2023-01-19T09:44:02;24.83;;;5.57;;
15476;SDS011;7840;42.702;23.296;2023-01-19T09:46:33;29.73;;;5.13;;
15476;SDS011;7840;42.702;23.296;2023-01-19T09:49:15;22.27;;;4.80;;
15476;SDS011;7840;42.702;23.296;2023-01-19T09:51:45;20.10;;;4.93;;
15476;SDS011;7840;42.702;23.296;2023-01-19T09:59:49;18.35;;;4.40;;
15476;SDS011;7840;42.702;23.296;2023-01-19T10:02:27;19.02;;;4.43;;
15476;SDS011;7840;42.702;23.296;2023-01-19T10:05:20;30.70;;;5.50;;
15476;SDS011;7840;42.702;23.296;2023-01-19T10:08:11;19.33;;;4.93;;
15476;SDS011;7840;42.702;23.296;2023-01-19T10:10:48;19.10;;;4.50;;
15476;SDS011;7840;42.702;23.296;2023-01-19T10:16:49;29.05;;;5.53;;
15476;SDS011;7840;42.702;23.296;2023-01-19T10:19:26;24.52;;;4.38;;
15476;SDS011;7840;42.702;23.296;2023-01-19T10:21:58;16.17;;;4.03;;
15476;SDS011;7840;42.702;23.296;2023-01-19T10:24:45;21.30;;;4.72;;
15476;SDS011;7840;42.702;23.296;2023-01-19T10:27:20;20.33;;;4.57;;
15476;SDS011;7840;42.702;23.296;2023-01-19T10:30:13;26.20;;;4.38;;
15476;SDS011;7840;42.702;23.296;2023-01-19T10:32:48;17.30;;;4.05;;
15476;SDS011;7840;42.702;23.296;2023-01-19T10:35:34;22.17;;;4.97;;
15476;SDS011;7840;42.702;23.296;2023-01-19T10:38:15;19.73;;;4.22;;
15476;SDS011;7840;42.702;23.296;2023-01-19T10:40:49;17.65;;;4.13;;
15476;SDS011;7840;42.702;23.296;2023-01-19T10:43:41;15.90;;;4.47;;
15476;SDS011;7840;42.702;23.296;2023-01-19T10:46:41;20.90;;;3.70;;
15476;SDS011;7840;42.702;23.296;2023-01-19T10:49:39;20.42;;;4.22;;
15476;SDS011;7840;42.702;23.296;2023-01-19T10:52:16;22.42;;;4.75;;
15476;SDS011;7840;42.702;23.296;2023-01-19T10:54:59;18.15;;;4.80;;
15476;SDS011;7840;42.702;23.296;2023-01-19T10:57:33;16.02;;;3.88;;
15476;SDS011;7840;42.702;23.296;2023-01-19T11:03:04;24.77;;;4.25;;
15476;SDS011;7840;42.702;23.296;2023-01-19T11:06:33;23.42;;;4.70;;
15476;SDS011;7840;42.702;23.296;2023-01-19T11:09:12;18.88;;;3.75;;
15476;SDS011;7840;42.702;23.296;2023-01-19T11:12:14;21.80;;;4.75;;
15476;SDS011;7840;42.702;23.296;2023-01-19T11:15:20;22.05;;;4.13;;
15476;SDS011;7840;42.702;23.296;2023-01-19T11:18:23;18.20;;;3.88;;
15476;SDS011;7840;42.702;23.296;2023-01-19T11:20:55;16.98;;;3.25;;
15476;SDS011;7840;42.702;23.296;2023-01-19T11:23:26;20.33;;;3.15;;
15476;SDS011;7840;42.702;23.296;2023-01-19T11:26:23;14.15;;;3.75;;
15476;SDS011;7840;42.702;23.296;2023-01-19T11:29:00;21.83;;;4.55;;
15476;SDS011;7840;42.702;23.296;2023-01-19T11:31:43;14.77;;;3.63;;
15476;SDS011;7840;42.702;23.296;2023-01-19T11:34:44;20.13;;;3.85;;
15476;SDS011;7840;42.702;23.296;2023-01-19T11:37:24;17.27;;;3.58;;
15476;SDS011;7840;42.702;23.296;2023-01-19T11:40:14;19.05;;;4.15;;
15476;SDS011;7840;42.702;23.296;2023-01-19T11:42:43;13.02;;;3.35;;
15476;SDS011;7840;42.702;23.296;2023-01-19T11:45:14;28.63;;;3.78;;
15476;SDS011;7840;42.702;23.296;2023-01-19T11:47:47;17.70;;;4.05;;
15476;SDS011;7840;42.702;23.296;2023-01-19T11:50:21;9.75;;;2.90;;
15476;SDS011;7840;42.702;23.296;2023-01-19T11:53:13;11.10;;;3.42;;
15476;SDS011;7840;42.702;23.296;2023-01-19T11:56:05;13.43;;;2.80;;
15476;SDS011;7840;42.702;23.296;2023-01-19T11:58:56;16.38;;;3.85;;
15476;SDS011;7840;42.702;23.296;2023-01-19T12:01:45;15.75;;;3.90;;
15476;SDS011;7840;42.702;23.296;2023-01-19T12:04:29;13.13;;;3.90;;
15476;SDS011;7840;42.702;23.296;2023-01-19T12:07:04;15.98;;;3.47;;
15476;SDS011;7840;42.702;23.296;2023-01-19T12:10:01;11.00;;;3.70;;
15476;SDS011;7840;42.702;23.296;2023-01-19T12:12:45;18.40;;;3.75;;
15476;SDS011;7840;42.702;23.296;2023-01-19T12:15:46;18.55;;;3.55;;
15476;SDS011;7840;42.702;23.296;2023-01-19T12:18:32;12.52;;;3.10;;
15476;SDS011;7840;42.702;23.296;2023-01-19T12:21:29;17.23;;;3.67;;
15476;SDS011;7840;42.702;23.296;2023-01-19T12:26:51;12.60;;;2.97;;
15476;SDS011;7840;42.702;23.296;2023-01-19T12:29:26;17.83;;;3.45;;
15476;SDS011;7840;42.702;23.296;2023-01-19T12:38:23;15.25;;;3.72;;
15476;SDS011;7840;42.702;23.296;2023-01-19T12:44:20;14.15;;;3.35;;
15476;SDS011;7840;42.702;23.296;2023-01-19T12:46:55;16.27;;;3.25;;
15476;SDS011;7840;42.702;23.296;2023-01-19T12:50:12;10.20;;;3.20;;
15476;SDS011;7840;42.702;23.296;2023-01-19T12:52:46;10.07;;;2.88;;
15476;SDS011;7840;42.702;23.296;2023-01-19T12:56:00;13.60;;;3.20;;
15476;SDS011;7840;42.702;23.296;2023-01-19T12:58:39;9.35;;;2.67;;
15476;SDS011;7840;42.702;23.296;2023-01-19T13:01:17;16.88;;;3.63;;
15476;SDS011;7840;42.702;23.296;2023-01-19T13:04:00;10.65;;;2.83;;
15476;SDS011;7840;42.702;23.296;2023-01-19T13:09:38;9.70;;;2.75;;
15476;SDS011;7840;42.702;23.296;2023-01-19T13:12:21;15.80;;;3.17;;
15476;SDS011;7840;42.702;23.296;2023-01-19T13:17:54;10.50;;;2.95;;
15476;SDS011;7840;42.702;23.296;2023-01-19T13:20:33;9.43;;;2.78;;
15476;SDS011;7840;42.702;23.296;2023-01-19T13:23:14;11.13;;;3.10;;
15476;SDS011;7840;42.702;23.296;2023-01-19T13:25:51;16.77;;;3.08;;
15476;SDS011;7840;42.702;23.296;2023-01-19T13:28:27;9.45;;;2.70;;
15476;SDS011;7840;42.702;23.296;2023-01-19T13:31:08;9.32;;;2.70;;
15476;SDS011;7840;42.702;23.296;2023-01-19T13:33:49;15.95;;;3.00;;
15476;SDS011;7840;42.702;23.296;2023-01-19T13:36:40;10.05;;;2.97;;
15476;SDS011;7840;42.702;23.296;2023-01-19T13:39:14;9.32;;;2.80;;
15476;SDS011;7840;42.702;23.296;2023-01-19T13:42:04;7.63;;;2.70;;
15476;SDS011;7840;42.702;23.296;2023-01-19T13:44:39;10.38;;;2.70;;
15476;SDS011;7840;42.702;23.296;2023-01-19T13:47:17;10.77;;;2.60;;
15476;SDS011;7840;42.702;23.296;2023-01-19T13:52:45;7.65;;;3.30;;
15476;SDS011;7840;42.702;23.296;2023-01-19T13:55:39;11.95;;;3.20;;
15476;SDS011;7840;42.702;23.296;2023-01-19T14:01:18;8.32;;;2.45;;
15476;SDS011;7840;42.702;23.296;2023-01-19T14:04:27;8.55;;;2.53;;
15476;SDS011;7840;42.702;23.296;2023-01-19T14:10:02;8.82;;;2.95;;
15476;SDS011;7840;42.702;23.296;2023-01-19T14:12:56;9.10;;;2.60;;
15476;SDS011;7840;42.702;23.296;2023-01-19T14:15:27;11.32;;;2.60;;
15476;SDS011;7840;42.702;23.296;2023-01-19T14:21:10;8.68;;;2.83;;
15476;SDS011;7840;42.702;23.296;2023-01-19T14:24:04;6.85;;;2.25;;
15476;SDS011;7840;42.702;23.296;2023-01-19T14:27:05;8.07;;;2.40;;
15476;SDS011;7840;42.702;23.296;2023-01-19T14:29:49;7.18;;;2.13;;
15476;SDS011;7840;42.702;23.296;2023-01-19T14:32:40;5.38;;;2.20;;
15476;SDS011;7840;42.702;23.296;2023-01-19T14:35:20;10.20;;;2.70;;
15476;SDS011;7840;42.702;23.296;2023-01-19T14:40:43;6.68;;;1.60;;
15476;SDS011;7840;42.702;23.296;2023-01-19T14:43:11;9.10;;;2.20;;
15476;SDS011;7840;42.702;23.296;2023-01-19T14:45:39;12.52;;;2.70;;
15476;SDS011;7840;42.702;23.296;2023-01-19T14:48:13;10.48;;;2.60;;
15476;SDS011;7840;42.702;23.296;2023-01-19T14:50:46;8.45;;;3.30;;
15476;SDS011;7840;42.702;23.296;2023-01-19T14:53:55;18.27;;;4.43;;
15476;SDS011;7840;42.702;23.296;2023-01-19T14:56:47;9.50;;;2.67;;
15476;SDS011;7840;42.702;23.296;2023-01-19T14:59:18;5.90;;;2.00;;
15476;SDS011;7840;42.702;23.296;2023-01-19T15:01:46;5.38;;;2.70;;
15476;SDS011;7840;42.702;23.296;2023-01-19T15:04:49;10.82;;;2.45;;
15476;SDS011;7840;42.702;23.296;2023-01-19T15:07:25;8.50;;;2.22;;
15476;SDS011;7840;42.702;23.296;2023-01-19T15:09:56;9.43;;;2.33;;
15476;SDS011;7840;42.702;23.296;2023-01-19T15:12:46;8.18;;;2.65;;
15476;SDS011;7840;42.702;23.296;2023-01-19T15:15:15;8.52;;;2.70;;
15476;SDS011;7840;42.702;23.296;2023-01-19T15:17:46;9.60;;;3.50;;
15476;SDS011;7840;42.702;23.296;2023-01-19T15:20:15;6.88;;;3.15;;
15476;SDS011;7840;42.702;23.296;2023-01-19T15:23:10;9.25;;;2.42;;
15476;SDS011;7840;42.702;23.296;2023-01-19T15:25:40;9.85;;;2.40;;
15476;SDS011;7840;42.702;23.296;2023-01-19T15:28:17;9.98;;;2.35;;
15476;SDS011;7840;42.702;23.296;2023-01-19T15:30:45;9.60;;;3.05;;
15476;SDS011;7840;42.702;23.296;2023-01-19T15:33:28;13.13;;;3.25;;
15476;SDS011;7840;42.702;23.296;2023-01-19T15:35:56;14.43;;;3.50;;
15476;SDS011;7840;42.702;23.296;2023-01-19T15:38:56;5.90;;;2.75;;
15476;SDS011;7840;42.702;23.296;2023-01-19T15:41:36;8.27;;;2.25;;
15476;SDS011;7840;42.702;23.296;2023-01-19T15:44:07;9.10;;;2.90;;
15476;SDS011;7840;42.702;23.296;2023-01-19T15:46:35;5.88;;;2.28;;
15476;SDS011;7840;42.702;23.296;2023-01-19T15:49:03;10.90;;;3.05;;
15476;SDS011;7840;42.702;23.296;2023-01-19T15:52:00;9.63;;;2.97;;
15476;SDS011;7840;42.702;23.296;2023-01-19T15:54:32;9.85;;;2.22;;
15476;SDS011;7840;42.702;23.296;2023-01-19T15:57:04;8.65;;;3.03;;
15476;SDS011;7840;42.702;23.296;2023-01-19T15:59:33;8.07;;;2.72;;
15476;SDS011;7840;42.702;23.296;2023-01-19T16:02:11;9.57;;;2.75;;
15476;SDS011;7840;42.702;23.296;2023-01-19T16:04:39;8.98;;;2.83;;
15476;SDS011;7840;42.702;23.296;2023-01-19T16:07:14;6.07;;;2.75;;
15476;SDS011;7840;42.702;23.296;2023-01-19T16:10:09;9.30;;;2.85;;
15476;SDS011;7840;42.702;23.296;2023-01-19T16:12:53;6.50;;;2.78;;
15476;SDS011;7840;42.702;23.296;2023-01-19T16:15:32;10.07;;;3.15;;
15476;SDS011;7840;42.702;23.296;2023-01-19T16:18:39;11.48;;;3.45;;
15476;SDS011;7840;42.702;23.296;2023-01-19T16:21:10;13.85;;;4.82;;
15476;SDS011;7840;42.702;23.296;2023-01-19T16:23:50;10.23;;;3.45;;
15476;SDS011;7840;42.702;23.296;2023-01-19T16:26:28;9.32;;;2.60;;
15476;SDS011;7840;42.702;23.296;2023-01-19T16:29:08;5.07;;;2.17;;
15476;SDS011;7840;42.702;23.296;2023-01-19T16:31:41;5.82;;;2.00;;
15476;SDS011;7840;42.702;23.296;2023-01-19T16:34:14;3.28;;;1.73;;
15476;SDS011;7840;42.702;23.296;2023-01-19T16:36:45;4.40;;;2.25;;
15476;SDS011;7840;42.702;23.296;2023-01-19T16:39:13;6.38;;;2.20;;
15476;SDS011;7840;42.702;23.296;2023-01-19T16:41:48;5.47;;;1.65;;
15476;SDS011;7840;42.702;23.296;2023-01-19T16:44:16;3.33;;;1.50;;
15476;SDS011;7840;42.702;23.296;2023-01-19T16:46:47;5.57;;;2.25;;
15476;SDS011;7840;42.702;23.296;2023-01-19T16:49:15;3.97;;;1.80;;
15476;SDS011;7840;42.702;23.296;2023-01-19T16:51:44;3.92;;;2.13;;
15476;SDS011;7840;42.702;23.296;2023-01-19T16:54:18;2.00;;;1.63;;
15476;SDS011;7840;42.702;23.296;2023-01-19T16:57:04;2.33;;;1.55;;
15476;SDS011;7840;42.702;23.296;2023-01-19T16:59:34;3.30;;;1.50;;
15476;SDS011;7840;42.702;23.296;2023-01-19T17:02:11;3.60;;;1.77;;
15476;SDS011;7840;42.702;23.296;2023-01-19T17:04:46;4.18;;;1.92;;
15476;SDS011;7840;42.702;23.296;2023-01-19T17:07:45;3.88;;;2.08;;
15476;SDS011;7840;42.702;23.296;2023-01-19T17:10:14;4.03;;;1.80;;
15476;SDS011;7840;42.702;23.296;2023-01-19T17:12:42;3.47;;;1.85;;
15476;SDS011;7840;42.702;23.296;2023-01-19T17:15:12;6.15;;;2.60;;
15476;SDS011;7840;42.702;23.296;2023-01-19T17:17:50;6.57;;;2.78;;
15476;SDS011;7840;42.702;23.296;2023-01-19T17:20:18;7.65;;;2.45;;
15476;SDS011;7840;42.702;23.296;2023-01-19T17:22:46;5.25;;;2.47;;
15476;SDS011;7840;42.702;23.296;2023-01-19T17:25:50;8.88;;;3.42;;
15476;SDS011;7840;42.702;23.296;2023-01-19T17:28:22;10.47;;;2.77;;
15476;SDS011;7840;42.702;23.296;2023-01-19T17:30:51;6.50;;;2.90;;
15476;SDS011;7840;42.702;23.296;2023-01-19T17:39:31;6.97;;;3.20;;
15476;SDS011;7840;42.702;23.296;2023-01-19T17:42:00;6.90;;;2.50;;